createdAt,value
2017-06-13T00:00:20.733Z,-1.14
2017-06-13T00:01:14.734Z,-1.61
2017-06-13T00:02:14.841Z,-4.12
2017-06-13T00:03:09.138Z,-4.12
2017-06-13T00:04:08.884Z,-4.13
2017-06-13T00:04:56.902Z,-4.12
2017-06-13T00:05:44.956Z,-4.12
2017-06-13T00:06:40.028Z,-2.78
2017-06-13T00:07:40.029Z,0.11
2017-06-13T00:08:35.036Z,-1.53
2017-06-13T00:09:29.140Z,-1.29
2017-06-13T00:10:23.158Z,-1.53
2017-06-13T00:11:17.183Z,-0.98
2017-06-13T00:12:06.414Z,-1.61
2017-06-13T00:13:00.239Z,-3.89
2017-06-13T00:13:55.338Z,-3.33
2017-06-13T00:14:55.342Z,-3.65
2017-06-13T00:15:43.414Z,-3.49
2017-06-13T00:16:32.422Z,-3.26
2017-06-13T00:17:32.463Z,-4.12
2017-06-13T00:18:38.540Z,-4.12
2017-06-13T00:19:33.509Z,-4.13
2017-06-13T00:20:27.571Z,-4.13
2017-06-13T00:21:22.646Z,-4.13
2017-06-13T00:22:16.639Z,-4.13
2017-06-13T00:23:17.677Z,-2.23
2017-06-13T00:24:12.707Z,-2.16
2017-06-13T00:25:01.759Z,-3.26
2017-06-13T00:25:56.829Z,1.90
2017-06-13T00:26:50.841Z,0.66
2017-06-13T00:27:50.897Z,-1.06
2017-06-13T00:28:51.171Z,-0.59
2017-06-13T00:29:50.967Z,-2.71
2017-06-13T00:30:39.995Z,-3.02
2017-06-13T00:31:40.043Z,-3.97
2017-06-13T00:32:35.074Z,-4.13
2017-06-13T00:33:30.591Z,-4.13
2017-06-13T00:34:19.493Z,-4.13
2017-06-13T00:35:14.329Z,-4.13
2017-06-13T00:36:09.236Z,-4.13
2017-06-13T00:37:03.220Z,-4.13
2017-06-13T00:37:58.344Z,-4.13
2017-06-13T00:38:47.358Z,-4.13
2017-06-13T00:39:35.371Z,-4.13
2017-06-13T00:40:29.424Z,-4.13
2017-06-13T00:41:24.462Z,-4.13
2017-06-13T00:42:13.533Z,-3.26
2017-06-13T00:43:08.544Z,-4.13
2017-06-13T00:44:02.621Z,-4.13
2017-06-13T00:44:56.658Z,-4.13
2017-06-13T00:45:50.655Z,-4.13
2017-06-13T00:46:38.706Z,-4.13
2017-06-13T00:47:32.759Z,-4.13
2017-06-13T00:48:26.795Z,-4.13
2017-06-13T00:49:21.836Z,-4.13
2017-06-13T00:50:16.865Z,-4.13
2017-06-13T00:51:06.023Z,-2.71
2017-06-13T00:52:05.930Z,-4.13
2017-06-13T00:53:01.277Z,-4.13
2017-06-13T00:53:55.030Z,-4.13
2017-06-13T00:54:55.412Z,-4.13
2017-06-13T00:55:49.127Z,-4.13
2017-06-13T00:56:37.392Z,-4.13
2017-06-13T00:57:32.388Z,-4.13
2017-06-13T00:58:32.557Z,-4.13
2017-06-13T00:59:26.236Z,-4.13
2017-06-13T01:00:27.619Z,-4.13
2017-06-13T01:01:28.325Z,-4.13
2017-06-13T01:02:28.360Z,-4.13
2017-06-13T01:03:28.707Z,-4.13
2017-06-13T01:04:23.435Z,-4.13
2017-06-13T01:05:12.439Z,-4.13
2017-06-13T01:06:07.528Z,-4.13
2017-06-13T01:07:07.519Z,-4.13
2017-06-13T01:08:02.921Z,-4.13
2017-06-13T01:08:57.624Z,-4.13
2017-06-13T01:09:57.630Z,-4.13
2017-06-13T01:10:51.712Z,-4.13
2017-06-13T01:11:45.732Z,-4.13
2017-06-13T01:12:39.769Z,-4.13
2017-06-13T01:13:34.792Z,-4.13
2017-06-13T01:14:28.865Z,-4.13
2017-06-13T01:15:22.901Z,-4.13
2017-06-13T01:16:17.948Z,-4.13
2017-06-13T01:17:06.964Z,-4.13
2017-06-13T01:17:56.034Z,-4.13
2017-06-13T01:18:56.424Z,-4.13
2017-06-13T01:19:51.087Z,-4.13
2017-06-13T01:20:52.140Z,-4.13
2017-06-13T01:21:47.160Z,-4.13
2017-06-13T01:22:47.426Z,-4.13
2017-06-13T01:23:41.239Z,-4.13
2017-06-13T01:24:41.387Z,-4.13
2017-06-13T01:25:30.325Z,-4.13
2017-06-13T01:26:30.345Z,-4.13
2017-06-13T01:27:24.404Z,-4.13
2017-06-13T01:28:24.529Z,-4.13
2017-06-13T01:29:19.461Z,-4.13
2017-06-13T01:30:14.544Z,-4.13
2017-06-13T01:31:08.532Z,-4.13
2017-06-13T01:32:03.531Z,-4.13
2017-06-13T01:32:52.886Z,-4.13
2017-06-13T01:33:52.654Z,-4.13
2017-06-13T01:34:40.723Z,-4.13
2017-06-13T01:35:41.741Z,-4.13
2017-06-13T01:36:42.731Z,-4.13
2017-06-13T01:37:30.828Z,-4.13
2017-06-13T01:38:31.220Z,-4.13
2017-06-13T01:39:19.896Z,-4.13
2017-06-13T01:40:13.948Z,-4.13
2017-06-13T01:41:09.049Z,-4.13
2017-06-13T01:42:03.022Z,-4.13
2017-06-13T01:43:04.030Z,-4.13
2017-06-13T01:44:04.116Z,-4.13
2017-06-13T01:44:53.140Z,-4.13
2017-06-13T01:45:47.151Z,-4.13
2017-06-13T01:46:36.384Z,-4.13
2017-06-13T01:47:30.221Z,-4.13
2017-06-13T01:48:30.578Z,-4.13
2017-06-13T01:49:19.253Z,-4.13
2017-06-13T01:50:19.343Z,-4.13
2017-06-13T01:51:07.367Z,-4.13
2017-06-13T01:52:02.455Z,-4.13
2017-06-13T01:52:56.473Z,-4.13
2017-06-13T01:53:50.518Z,-4.13
2017-06-13T01:54:50.551Z,-4.13
2017-06-13T01:55:56.534Z,-4.13
2017-06-13T01:56:50.596Z,-4.13
2017-06-13T01:57:45.227Z,-4.13
2017-06-13T01:58:44.653Z,-4.13
2017-06-13T01:59:38.800Z,-4.13
2017-06-13T02:00:38.833Z,-4.13
2017-06-13T02:01:27.806Z,-4.13
2017-06-13T02:02:22.825Z,-4.13
2017-06-13T02:03:11.148Z,-4.13
2017-06-13T02:04:05.921Z,-4.13
2017-06-13T02:04:54.921Z,-4.13
2017-06-13T02:05:43.029Z,-4.13
2017-06-13T02:06:32.043Z,-4.13
2017-06-13T02:07:20.118Z,-4.13
2017-06-13T02:08:14.479Z,-4.13
2017-06-13T02:09:08.141Z,-4.13
2017-06-13T02:09:56.265Z,-4.13
2017-06-13T02:10:51.244Z,-4.13
2017-06-13T02:11:40.251Z,-4.13
2017-06-13T02:12:34.314Z,-4.13
2017-06-13T02:13:29.411Z,-4.13
2017-06-13T02:14:29.436Z,-4.13
2017-06-13T02:15:29.420Z,-4.13
2017-06-13T02:16:24.459Z,-4.13
2017-06-13T02:17:18.545Z,-4.13
2017-06-13T02:18:18.610Z,-4.13
2017-06-13T02:19:13.613Z,-4.13
2017-06-13T02:20:08.628Z,-4.13
2017-06-13T02:21:14.634Z,-4.13
2017-06-13T02:22:08.744Z,-4.13
2017-06-13T02:23:03.741Z,-4.13
2017-06-13T02:23:58.788Z,-4.13
2017-06-13T02:24:52.846Z,-4.13
2017-06-13T02:25:41.852Z,-4.13
2017-06-13T02:26:36.932Z,-4.13
2017-06-13T02:27:36.948Z,-4.13
2017-06-13T02:28:32.414Z,-4.13
2017-06-13T02:29:26.050Z,-4.13
2017-06-13T02:30:15.122Z,-4.13
2017-06-13T02:31:04.121Z,-4.13
2017-06-13T02:32:05.141Z,-4.13
2017-06-13T02:33:05.287Z,-4.13
2017-06-13T02:34:05.212Z,-4.13
2017-06-13T02:34:53.610Z,-4.13
2017-06-13T02:35:41.372Z,-4.13
2017-06-13T02:36:30.343Z,-4.13
2017-06-13T02:37:19.373Z,-4.13
2017-06-13T02:38:08.449Z,-4.13
2017-06-13T02:39:02.438Z,-4.13
2017-06-13T02:39:57.523Z,-4.13
2017-06-13T02:40:46.661Z,-4.13
2017-06-13T02:41:34.551Z,-4.13
2017-06-13T02:42:23.644Z,-4.13
2017-06-13T02:43:11.791Z,-4.13
2017-06-13T02:43:59.756Z,-4.13
2017-06-13T02:44:47.963Z,-4.13
2017-06-13T02:45:36.836Z,-4.13
2017-06-13T02:46:36.994Z,-4.13
2017-06-13T02:47:36.853Z,-4.13
2017-06-13T02:48:25.945Z,-4.13
2017-06-13T02:49:13.961Z,-4.13
2017-06-13T02:50:02.018Z,-4.13
2017-06-13T02:50:57.033Z,-4.13
2017-06-13T02:51:45.133Z,-4.13
2017-06-13T02:52:34.145Z,-4.13
2017-06-13T02:53:29.190Z,-4.13
2017-06-13T02:54:30.249Z,-4.13
2017-06-13T02:55:24.240Z,-4.13
2017-06-13T02:56:24.385Z,-4.13
2017-06-13T02:57:13.667Z,-4.13
2017-06-13T02:58:02.579Z,-4.13
2017-06-13T02:59:02.406Z,-4.13
2017-06-13T03:00:02.634Z,-4.13
2017-06-13T03:00:57.637Z,-4.13
2017-06-13T03:01:51.744Z,-4.13
2017-06-13T03:02:39.710Z,-4.13
2017-06-13T03:03:27.967Z,-4.13
2017-06-13T03:04:21.674Z,-4.13
2017-06-13T03:05:15.678Z,-4.13
2017-06-13T03:06:16.066Z,-4.13
2017-06-13T03:07:09.766Z,-4.13
2017-06-13T03:08:03.839Z,-4.13
2017-06-13T03:08:57.850Z,-4.13
2017-06-13T03:09:51.943Z,-4.13
2017-06-13T03:10:46.941Z,-4.13
2017-06-13T03:11:35.987Z,-4.13
2017-06-13T03:12:30.059Z,-4.13
2017-06-13T03:13:24.091Z,-4.13
2017-06-13T03:14:13.132Z,-4.13
2017-06-13T03:15:08.132Z,-4.13
2017-06-13T03:16:02.142Z,-4.13
2017-06-13T03:16:56.234Z,-4.13
2017-06-13T03:17:56.241Z,-4.13
2017-06-13T03:18:56.389Z,-4.13
2017-06-13T03:19:45.548Z,-4.13
2017-06-13T03:20:39.355Z,-4.13
2017-06-13T03:21:39.590Z,-4.13
2017-06-13T03:22:28.597Z,-4.13
2017-06-13T03:23:23.455Z,-4.13
2017-06-13T03:24:17.804Z,-4.13
2017-06-13T03:25:12.564Z,-4.13
2017-06-13T03:26:01.633Z,-4.13
2017-06-13T03:26:55.657Z,-4.13
2017-06-13T03:27:44.690Z,-4.13
2017-06-13T03:28:39.022Z,-4.13
2017-06-13T03:29:32.749Z,-4.13
2017-06-13T03:30:20.826Z,-4.13
2017-06-13T03:31:15.861Z,-4.13
2017-06-13T03:32:09.892Z,-4.13
2017-06-13T03:33:03.935Z,-4.13
2017-06-13T03:34:03.972Z,-4.13
2017-06-13T03:34:58.536Z,-4.13
2017-06-13T03:35:53.056Z,-4.13
2017-06-13T03:36:41.131Z,-4.13
2017-06-13T03:37:35.256Z,-4.13
2017-06-13T03:38:35.140Z,-4.13
2017-06-13T03:39:24.241Z,-4.13
2017-06-13T03:40:13.348Z,-4.13
2017-06-13T03:41:08.430Z,-4.13
2017-06-13T03:41:56.671Z,-4.13
2017-06-13T03:42:50.783Z,-4.13
2017-06-13T03:43:44.445Z,-4.13
2017-06-13T03:44:38.439Z,-4.13
2017-06-13T03:45:26.556Z,-4.13
2017-06-13T03:46:20.533Z,-4.13
2017-06-13T03:47:09.628Z,-4.13
2017-06-13T03:47:58.643Z,-4.13
2017-06-13T03:48:58.675Z,-4.13
2017-06-13T03:49:58.742Z,-4.13
2017-06-13T03:50:53.209Z,-4.13
2017-06-13T03:51:41.845Z,-4.13
2017-06-13T03:52:35.837Z,-4.13
2017-06-13T03:53:24.928Z,-4.13
2017-06-13T03:54:18.941Z,-4.13
2017-06-13T03:55:19.983Z,-4.13
2017-06-13T03:56:14.009Z,-4.13
2017-06-13T03:57:02.116Z,-4.13
2017-06-13T03:57:56.115Z,-4.13
2017-06-13T03:58:50.356Z,-4.13
2017-06-13T03:59:45.170Z,-4.13
2017-06-13T04:00:45.188Z,-4.13
2017-06-13T04:01:39.235Z,-4.13
2017-06-13T04:02:28.262Z,-4.13
2017-06-13T04:03:17.614Z,-4.13
2017-06-13T04:04:12.369Z,-4.13
2017-06-13T04:05:13.412Z,-4.13
2017-06-13T04:06:08.461Z,-4.13
2017-06-13T04:07:08.539Z,-4.13
2017-06-13T04:08:08.526Z,-4.13
2017-06-13T04:09:08.573Z,-4.13
2017-06-13T04:10:08.785Z,-4.13
2017-06-13T04:11:08.640Z,-4.13
2017-06-13T04:12:08.766Z,-4.13
2017-06-13T04:13:08.709Z,-4.13
2017-06-13T04:14:08.736Z,-4.13
2017-06-13T04:15:08.783Z,-4.13
2017-06-13T04:16:08.833Z,-4.13
2017-06-13T04:17:08.843Z,-4.13
2017-06-13T04:18:08.925Z,-4.13
2017-06-13T04:19:08.945Z,-4.13
2017-06-13T04:20:08.971Z,-4.13
2017-06-13T04:21:09.017Z,-4.13
2017-06-13T04:22:09.058Z,-4.13
2017-06-13T04:23:03.036Z,-4.13
2017-06-13T04:23:51.379Z,-4.13
2017-06-13T04:24:40.148Z,-4.13
2017-06-13T04:25:28.246Z,-4.13
2017-06-13T04:26:17.225Z,-4.13
2017-06-13T04:27:05.448Z,-4.13
2017-06-13T04:28:05.349Z,-4.13
2017-06-13T04:28:59.353Z,-4.12
2017-06-13T04:30:00.433Z,-4.12
2017-06-13T04:30:54.452Z,-4.12
2017-06-13T04:31:49.504Z,-4.12
2017-06-13T04:32:43.551Z,-4.11
2017-06-13T04:33:38.556Z,-4.11
2017-06-13T04:34:26.645Z,-4.10
2017-06-13T04:35:20.667Z,0.47
2017-06-13T04:36:09.742Z,4.28
2017-06-13T04:36:57.773Z,8.80
2017-06-13T04:37:52.188Z,9.78
2017-06-13T04:38:45.902Z,13.95
2017-06-13T04:39:39.932Z,17.54
2017-06-13T04:40:27.971Z,20.54
2017-06-13T04:41:17.184Z,25.96
2017-06-13T04:42:06.317Z,25.33
2017-06-13T04:42:54.470Z,27.15
2017-06-13T04:43:48.116Z,24.81
2017-06-13T04:44:37.167Z,27.66
2017-06-13T04:45:37.225Z,34.29
2017-06-13T04:46:32.255Z,35.81
2017-06-13T04:47:27.314Z,37.45
2017-06-13T04:48:16.392Z,38.44
2017-06-13T04:49:11.349Z,41.09
2017-06-13T04:50:11.431Z,38.27
2017-06-13T04:51:06.479Z,42.16
2017-06-13T04:51:55.510Z,45.04
2017-06-13T04:52:44.565Z,44.15
2017-06-13T04:53:39.598Z,46.25
2017-06-13T04:54:34.674Z,45.46
2017-06-13T04:55:28.718Z,45.12
2017-06-13T04:56:16.810Z,46.33
2017-06-13T04:57:11.774Z,44.57
2017-06-13T04:58:12.026Z,47.30
2017-06-13T04:59:12.189Z,45.99
2017-06-13T05:00:05.935Z,46.34
2017-06-13T05:01:00.959Z,47.72
2017-06-13T05:02:01.033Z,48.18
2017-06-13T05:02:50.455Z,50.56
2017-06-13T05:03:50.128Z,48.50
2017-06-13T05:04:39.166Z,48.64
2017-06-13T05:05:33.445Z,47.80
2017-06-13T05:06:22.259Z,44.09
2017-06-13T05:07:17.384Z,48.34
2017-06-13T05:08:06.658Z,46.94
2017-06-13T05:09:01.372Z,43.09
2017-06-13T05:10:01.462Z,43.57
2017-06-13T05:10:50.977Z,45.03
2017-06-13T05:11:39.517Z,45.27
2017-06-13T05:12:33.792Z,45.82
2017-06-13T05:13:33.621Z,47.04
2017-06-13T05:14:22.855Z,50.86
2017-06-13T05:15:16.696Z,50.31
2017-06-13T05:16:10.782Z,50.57
2017-06-13T05:17:05.832Z,51.59
2017-06-13T05:17:55.247Z,47.82
2017-06-13T05:18:50.312Z,47.17
2017-06-13T05:19:43.973Z,49.51
2017-06-13T05:20:38.268Z,50.34
2017-06-13T05:21:27.057Z,50.46
2017-06-13T05:22:21.126Z,50.80
2017-06-13T05:23:16.151Z,49.80
2017-06-13T05:24:10.315Z,47.37
2017-06-13T05:25:04.247Z,47.78
2017-06-13T05:25:59.403Z,50.49
2017-06-13T05:26:59.370Z,50.87
2017-06-13T05:27:53.804Z,49.79
2017-06-13T05:28:47.689Z,51.58
2017-06-13T05:29:47.716Z,52.59
2017-06-13T05:30:42.541Z,50.93
2017-06-13T05:31:31.810Z,52.64
2017-06-13T05:32:20.628Z,51.06
2017-06-13T05:33:08.736Z,50.04
2017-06-13T05:34:03.815Z,52.83
2017-06-13T05:34:58.791Z,51.53
2017-06-13T05:35:59.858Z,50.14
2017-06-13T05:36:48.946Z,50.77
2017-06-13T05:37:37.198Z,51.24
2017-06-13T05:38:37.167Z,49.31
2017-06-13T05:39:26.076Z,49.38
2017-06-13T05:40:15.106Z,49.95
2017-06-13T05:41:09.171Z,50.62
2017-06-13T05:42:09.215Z,52.74
2017-06-13T05:42:58.232Z,54.97
2017-06-13T05:43:53.332Z,52.97
2017-06-13T05:44:47.429Z,54.49
2017-06-13T05:45:35.427Z,54.29
2017-06-13T05:46:24.457Z,54.67
2017-06-13T05:47:19.715Z,54.81
2017-06-13T05:48:08.556Z,54.11
2017-06-13T05:49:03.914Z,52.75
2017-06-13T05:49:57.743Z,52.97
2017-06-13T05:50:57.710Z,49.48
2017-06-13T05:51:52.782Z,48.54
2017-06-13T05:52:54.214Z,51.21
2017-06-13T05:53:41.893Z,51.68
2017-06-13T05:54:37.259Z,53.85
2017-06-13T05:55:26.097Z,52.50
2017-06-13T05:56:20.064Z,51.46
2017-06-13T05:57:20.061Z,51.63
2017-06-13T05:58:09.435Z,53.32
2017-06-13T05:59:03.193Z,52.92
2017-06-13T05:59:58.231Z,51.16
2017-06-13T06:00:53.548Z,52.96
2017-06-13T06:01:47.818Z,53.12
2017-06-13T06:02:47.909Z,51.97
2017-06-13T06:03:36.763Z,50.41
2017-06-13T06:04:25.692Z,47.00
2017-06-13T06:05:20.566Z,42.80
2017-06-13T06:06:21.192Z,43.67
2017-06-13T06:07:15.665Z,41.59
2017-06-13T06:08:04.678Z,40.17
2017-06-13T06:09:04.737Z,37.63
2017-06-13T06:09:58.856Z,42.67
2017-06-13T06:10:52.914Z,46.59
2017-06-13T06:11:41.934Z,45.92
2017-06-13T06:12:36.958Z,44.27
2017-06-13T06:13:32.283Z,45.17
2017-06-13T06:14:27.065Z,40.39
2017-06-13T06:15:16.325Z,39.74
2017-06-13T06:16:16.304Z,35.94
2017-06-13T06:17:16.504Z,42.86
2017-06-13T06:18:05.476Z,46.25
2017-06-13T06:18:59.354Z,46.52
2017-06-13T06:19:59.708Z,50.69
2017-06-13T06:20:54.425Z,47.18
2017-06-13T06:21:49.470Z,43.30
2017-06-13T06:22:43.558Z,40.65
2017-06-13T06:23:43.831Z,45.64
2017-06-13T06:24:37.836Z,46.65
2017-06-13T06:25:31.965Z,47.16
2017-06-13T06:26:32.057Z,50.86
2017-06-13T06:27:32.020Z,52.66
2017-06-13T06:28:21.155Z,54.01
2017-06-13T06:29:10.172Z,55.35
2017-06-13T06:30:05.213Z,54.43
2017-06-13T06:30:53.259Z,53.96
2017-06-13T06:31:41.338Z,53.29
2017-06-13T06:32:35.407Z,54.88
2017-06-13T06:33:35.561Z,55.08
2017-06-13T06:34:30.444Z,54.31
2017-06-13T06:35:24.557Z,54.03
2017-06-13T06:36:18.631Z,54.32
2017-06-13T06:37:12.648Z,53.90
2017-06-13T06:38:07.694Z,53.84
2017-06-13T06:39:01.786Z,52.76
2017-06-13T06:39:56.849Z,52.22
2017-06-13T06:40:51.881Z,53.27
2017-06-13T06:41:51.923Z,52.66
2017-06-13T06:42:41.021Z,53.12
2017-06-13T06:43:30.068Z,52.12
2017-06-13T06:44:24.136Z,51.74
2017-06-13T06:45:19.162Z,52.64
2017-06-13T06:46:07.280Z,54.77
2017-06-13T06:47:01.266Z,52.41
2017-06-13T06:47:55.369Z,51.54
2017-06-13T06:48:49.359Z,51.37
2017-06-13T06:49:44.487Z,52.15
2017-06-13T06:50:45.484Z,53.51
2017-06-13T06:51:39.542Z,54.34
2017-06-13T06:52:28.608Z,53.12
2017-06-13T06:53:23.694Z,53.99
2017-06-13T06:54:23.760Z,54.84
2017-06-13T06:55:17.809Z,55.45
2017-06-13T06:56:11.834Z,55.13
2017-06-13T06:57:12.893Z,55.30
2017-06-13T06:58:01.982Z,54.53
2017-06-13T06:58:57.023Z,55.01
2017-06-13T06:59:46.044Z,55.26
2017-06-13T07:00:40.103Z,53.81
2017-06-13T07:01:35.187Z,53.77
2017-06-13T07:02:24.214Z,52.88
2017-06-13T07:03:13.298Z,53.55
2017-06-13T07:04:01.313Z,52.40
2017-06-13T07:05:01.406Z,54.16
2017-06-13T07:05:55.566Z,53.43
2017-06-13T07:06:50.496Z,54.13
2017-06-13T07:07:44.530Z,54.54
2017-06-13T07:08:32.608Z,55.01
2017-06-13T07:09:27.687Z,54.42
2017-06-13T07:10:27.701Z,55.22
2017-06-13T07:11:21.832Z,55.50
2017-06-13T07:12:15.814Z,54.72
2017-06-13T07:13:09.885Z,54.79
2017-06-13T07:13:58.935Z,54.24
2017-06-13T07:14:48.024Z,54.20
2017-06-13T07:15:42.079Z,54.68
2017-06-13T07:16:37.100Z,54.94
2017-06-13T07:17:32.161Z,55.20
2017-06-13T07:18:26.219Z,54.70
2017-06-13T07:19:20.312Z,54.69
2017-06-13T07:20:14.389Z,52.10
2017-06-13T07:21:14.396Z,52.67
2017-06-13T07:22:02.488Z,52.81
2017-06-13T07:22:57.609Z,53.91
2017-06-13T07:23:51.587Z,52.73
2017-06-13T07:24:51.673Z,53.93
2017-06-13T07:25:45.708Z,53.72
2017-06-13T07:26:40.738Z,52.69
2017-06-13T07:27:40.765Z,53.55
2017-06-13T07:28:29.902Z,50.96
2017-06-13T07:29:18.926Z,49.15
2017-06-13T07:30:12.991Z,48.91
2017-06-13T07:31:07.011Z,49.26
2017-06-13T07:32:01.082Z,50.44
2017-06-13T07:33:01.172Z,48.77
2017-06-13T07:33:56.185Z,49.95
2017-06-13T07:34:45.291Z,51.87
2017-06-13T07:35:33.298Z,52.32
2017-06-13T07:36:33.363Z,53.09
2017-06-13T07:37:28.404Z,52.53
2017-06-13T07:38:23.663Z,52.16
2017-06-13T07:39:18.525Z,53.21
2017-06-13T07:40:13.561Z,54.54
2017-06-13T07:41:02.650Z,54.90
2017-06-13T07:41:51.712Z,55.35
2017-06-13T07:42:46.815Z,55.18
2017-06-13T07:43:41.887Z,54.05
2017-06-13T07:44:35.886Z,54.60
2017-06-13T07:45:24.910Z,55.73
2017-06-13T07:46:25.994Z,52.66
2017-06-13T07:47:15.026Z,53.69
2017-06-13T07:48:09.111Z,52.44
2017-06-13T07:49:04.190Z,55.54
2017-06-13T07:49:53.190Z,54.32
2017-06-13T07:50:42.247Z,55.57
2017-06-13T07:51:36.317Z,55.38
2017-06-13T07:52:31.418Z,55.50
2017-06-13T07:53:25.482Z,55.68
2017-06-13T07:54:25.539Z,54.98
2017-06-13T07:55:14.537Z,54.05
2017-06-13T07:56:08.592Z,53.40
2017-06-13T07:56:57.649Z,53.52
2017-06-13T07:57:51.699Z,53.79
2017-06-13T07:58:40.788Z,54.48
2017-06-13T07:59:35.852Z,54.32
2017-06-13T08:00:35.862Z,55.20
2017-06-13T08:01:30.976Z,55.31
2017-06-13T08:02:31.963Z,55.73
2017-06-13T08:03:21.035Z,55.19
2017-06-13T08:04:15.441Z,55.64
2017-06-13T08:05:09.102Z,54.62
2017-06-13T08:06:03.161Z,54.12
2017-06-13T08:06:57.129Z,54.14
2017-06-13T08:07:51.149Z,53.54
2017-06-13T08:08:40.282Z,52.24
2017-06-13T08:09:35.333Z,53.04
2017-06-13T08:10:29.556Z,54.57
2017-06-13T08:11:18.473Z,54.68
2017-06-13T08:12:12.546Z,54.58
2017-06-13T08:13:01.576Z,53.14
2017-06-13T08:13:55.713Z,53.11
2017-06-13T08:14:49.704Z,55.21
2017-06-13T08:15:43.819Z,55.25
2017-06-13T08:16:43.508Z,54.47
2017-06-13T08:17:32.790Z,53.80
2017-06-13T08:18:26.907Z,53.79
2017-06-13T08:19:21.802Z,55.42
2017-06-13T08:20:16.830Z,54.33
2017-06-13T08:21:11.042Z,52.85
2017-06-13T08:22:05.835Z,54.20
2017-06-13T08:23:01.146Z,53.09
2017-06-13T08:23:56.181Z,53.21
2017-06-13T08:24:50.274Z,55.48
2017-06-13T08:25:44.296Z,55.59
2017-06-13T08:26:38.356Z,55.47
2017-06-13T08:27:32.393Z,54.92
2017-06-13T08:28:26.490Z,53.21
2017-06-13T08:29:15.504Z,51.93
2017-06-13T08:30:09.545Z,54.01
2017-06-13T08:31:03.546Z,52.93
2017-06-13T08:31:57.691Z,52.86
2017-06-13T08:32:51.680Z,53.84
2017-06-13T08:33:40.788Z,53.50
2017-06-13T08:34:29.805Z,54.58
2017-06-13T08:35:29.872Z,54.01
2017-06-13T08:36:24.954Z,54.41
2017-06-13T08:37:18.979Z,54.92
2017-06-13T08:38:13.052Z,55.20
2017-06-13T08:39:08.100Z,55.34
2017-06-13T08:40:02.094Z,55.74
2017-06-13T08:40:56.188Z,54.60
2017-06-13T08:41:45.284Z,55.19
2017-06-13T08:42:39.302Z,54.87
2017-06-13T08:43:33.338Z,55.55
2017-06-13T08:44:22.464Z,55.43
2017-06-13T08:45:16.457Z,55.35
2017-06-13T08:46:16.419Z,54.80
2017-06-13T08:47:05.554Z,55.86
2017-06-13T08:47:53.612Z,54.83
2017-06-13T08:48:47.747Z,55.63
2017-06-13T08:49:42.767Z,55.50
2017-06-13T08:50:36.711Z,56.48
2017-06-13T08:51:31.738Z,55.04
2017-06-13T08:52:20.785Z,55.68
2017-06-13T08:53:09.920Z,55.84
2017-06-13T08:54:03.871Z,55.53
2017-06-13T08:54:53.041Z,55.08
2017-06-13T08:55:41.852Z,55.99
2017-06-13T08:56:36.071Z,55.38
2017-06-13T08:57:36.131Z,55.31
2017-06-13T08:58:30.300Z,55.93
2017-06-13T08:59:24.313Z,55.74
2017-06-13T09:00:18.271Z,55.52
2017-06-13T09:01:06.362Z,55.41
2017-06-13T09:01:54.181Z,55.94
2017-06-13T09:02:54.334Z,55.71
2017-06-13T09:03:43.561Z,55.29
2017-06-13T09:04:43.285Z,55.12
2017-06-13T09:05:38.346Z,55.92
2017-06-13T09:06:27.394Z,54.54
2017-06-13T09:07:21.781Z,55.64
2017-06-13T09:08:16.842Z,55.42
2017-06-13T09:09:04.902Z,54.97
2017-06-13T09:09:59.944Z,55.73
2017-06-13T09:11:00.991Z,55.06
2017-06-13T09:11:55.071Z,55.37
2017-06-13T09:12:49.076Z,55.20
2017-06-13T09:13:44.123Z,55.19
2017-06-13T09:14:38.349Z,55.03
2017-06-13T09:15:26.259Z,55.44
2017-06-13T09:16:21.290Z,55.26
2017-06-13T09:17:16.340Z,54.69
2017-06-13T09:18:05.339Z,55.26
2017-06-13T09:18:54.445Z,55.54
2017-06-13T09:19:43.494Z,54.83
2017-06-13T09:20:37.498Z,54.78
2017-06-13T09:21:31.568Z,55.60
2017-06-13T09:22:20.629Z,55.51
2017-06-13T09:23:14.701Z,55.36
2017-06-13T09:24:09.757Z,55.43
2017-06-13T09:24:58.774Z,55.43
2017-06-13T09:25:53.833Z,55.65
2017-06-13T09:26:42.951Z,55.47
2017-06-13T09:27:31.936Z,55.37
2017-06-13T09:28:26.043Z,55.16
2017-06-13T09:29:26.048Z,55.10
2017-06-13T09:30:15.192Z,55.79
2017-06-13T09:31:15.180Z,54.81
2017-06-13T09:32:10.184Z,55.46
2017-06-13T09:32:58.301Z,55.88
2017-06-13T09:33:58.311Z,55.73
2017-06-13T09:34:53.405Z,54.93
2017-06-13T09:35:47.462Z,55.26
2017-06-13T09:36:42.446Z,54.94
2017-06-13T09:37:42.553Z,54.30
2017-06-13T09:38:31.597Z,54.68
2017-06-13T09:39:25.709Z,54.54
2017-06-13T09:40:19.717Z,53.60
2017-06-13T09:41:08.786Z,54.42
2017-06-13T09:42:03.755Z,55.02
2017-06-13T09:42:51.867Z,55.44
2017-06-13T09:43:45.931Z,55.50
2017-06-13T09:44:34.935Z,55.13
2017-06-13T09:45:30.026Z,55.64
2017-06-13T09:46:24.084Z,54.70
2017-06-13T09:47:19.116Z,55.23
2017-06-13T09:48:14.234Z,54.92
2017-06-13T09:49:09.229Z,54.19
2017-06-13T09:50:03.303Z,54.53
2017-06-13T09:50:58.340Z,54.71
2017-06-13T09:51:59.399Z,54.54
2017-06-13T09:52:54.450Z,51.40
2017-06-13T09:53:48.475Z,53.45
2017-06-13T09:54:42.599Z,51.04
2017-06-13T09:55:30.613Z,52.70
2017-06-13T09:56:25.693Z,51.36
2017-06-13T09:57:20.739Z,49.50
2017-06-13T09:58:15.780Z,51.35
2017-06-13T09:59:09.858Z,49.99
2017-06-13T10:00:04.908Z,50.27
2017-06-13T10:00:58.974Z,52.08
2017-06-13T10:01:52.982Z,50.61
2017-06-13T10:02:42.517Z,48.95
2017-06-13T10:03:36.088Z,49.60
2017-06-13T10:04:25.210Z,50.22
2017-06-13T10:05:19.260Z,51.77
2017-06-13T10:06:14.377Z,52.58
2017-06-13T10:07:09.370Z,53.29
2017-06-13T10:08:10.479Z,52.23
2017-06-13T10:08:59.457Z,54.06
2017-06-13T10:09:54.625Z,54.20
2017-06-13T10:10:49.586Z,54.20
2017-06-13T10:11:44.623Z,54.77
2017-06-13T10:12:39.729Z,54.12
2017-06-13T10:13:28.764Z,55.13
2017-06-13T10:14:28.823Z,55.28
2017-06-13T10:15:22.871Z,55.58
2017-06-13T10:16:16.959Z,54.85
2017-06-13T10:17:11.018Z,54.90
2017-06-13T10:18:05.049Z,55.52
2017-06-13T10:18:59.082Z,54.82
2017-06-13T10:19:59.128Z,54.92
2017-06-13T10:20:54.183Z,55.43
2017-06-13T10:21:48.271Z,54.07
2017-06-13T10:22:37.273Z,54.07
2017-06-13T10:23:31.357Z,50.68
2017-06-13T10:24:25.477Z,51.89
2017-06-13T10:25:25.484Z,52.70
2017-06-13T10:26:20.484Z,52.67
2017-06-13T10:27:14.599Z,51.96
2017-06-13T10:28:09.613Z,53.22
2017-06-13T10:29:09.707Z,54.34
2017-06-13T10:30:03.793Z,53.29
2017-06-13T10:30:57.842Z,54.33
2017-06-13T10:31:51.862Z,53.96
2017-06-13T10:32:40.966Z,54.63
2017-06-13T10:33:41.962Z,55.84
2017-06-13T10:34:36.018Z,55.40
2017-06-13T10:35:31.234Z,55.41
2017-06-13T10:36:25.105Z,55.55
2017-06-13T10:37:20.182Z,56.49
2017-06-13T10:38:20.219Z,55.38
2017-06-13T10:39:20.301Z,55.22
2017-06-13T10:40:14.270Z,56.42
2017-06-13T10:41:08.397Z,55.78
2017-06-13T10:42:08.454Z,55.91
2017-06-13T10:42:57.508Z,55.51
2017-06-13T10:43:51.528Z,55.97
2017-06-13T10:44:46.570Z,55.71
2017-06-13T10:45:46.634Z,55.33
2017-06-13T10:46:46.703Z,55.25
2017-06-13T10:47:40.763Z,56.04
2017-06-13T10:48:40.785Z,55.70
2017-06-13T10:49:35.786Z,55.22
2017-06-13T10:50:29.904Z,55.36
2017-06-13T10:51:18.963Z,54.48
2017-06-13T10:52:19.047Z,54.77
2017-06-13T10:53:08.066Z,54.79
2017-06-13T10:53:57.117Z,54.46
2017-06-13T10:54:46.181Z,54.23
2017-06-13T10:55:52.202Z,54.60
2017-06-13T10:56:47.273Z,53.27
2017-06-13T10:57:36.322Z,54.20
2017-06-13T10:58:25.364Z,52.44
2017-06-13T10:59:19.389Z,51.38
2017-06-13T11:00:19.439Z,52.47
2017-06-13T11:01:14.506Z,53.91
2017-06-13T11:02:09.591Z,53.72
2017-06-13T11:03:03.645Z,54.08
2017-06-13T11:03:57.666Z,53.98
2017-06-13T11:04:51.763Z,55.03
2017-06-13T11:05:51.759Z,55.66
2017-06-13T11:06:51.793Z,55.43
2017-06-13T11:07:45.857Z,55.42
2017-06-13T11:08:34.016Z,55.32
2017-06-13T11:09:29.007Z,55.68
2017-06-13T11:10:23.026Z,55.57
2017-06-13T11:11:17.094Z,55.11
2017-06-13T11:12:12.114Z,55.62
2017-06-13T11:13:06.162Z,55.19
2017-06-13T11:13:55.297Z,55.01
2017-06-13T11:14:50.343Z,55.30
2017-06-13T11:15:45.353Z,55.33
2017-06-13T11:16:34.408Z,55.87
2017-06-13T11:17:34.463Z,55.83
2017-06-13T11:18:29.496Z,55.40
2017-06-13T11:19:23.542Z,55.64
2017-06-13T11:20:12.627Z,55.43
2017-06-13T11:21:12.660Z,55.66
2017-06-13T11:22:06.693Z,55.56
2017-06-13T11:23:06.699Z,54.75
2017-06-13T11:23:55.876Z,55.44
2017-06-13T11:24:44.948Z,54.87
2017-06-13T11:25:39.899Z,54.98
2017-06-13T11:26:35.010Z,54.55
2017-06-13T11:27:29.017Z,53.98
2017-06-13T11:28:23.053Z,54.06
2017-06-13T11:29:17.119Z,53.73
2017-06-13T11:30:05.186Z,53.16
2017-06-13T11:31:00.244Z,54.01
2017-06-13T11:31:55.261Z,54.92
2017-06-13T11:32:44.311Z,54.16
2017-06-13T11:33:39.383Z,54.10
2017-06-13T11:34:33.458Z,54.49
2017-06-13T11:35:22.522Z,54.63
2017-06-13T11:36:17.526Z,54.21